sensor_id;sensor_type;location;lat;lon;timestamp;P1;durP1;ratioP1;P2;durP2;ratioP2
47153;SDS011;32907;41.412;2.164;2022-10-31T00:03:58;15.73;;;7.60;;
47153;SDS011;32907;41.412;2.164;2022-10-31T00:06:26;12.20;;;6.72;;
47153;SDS011;32907;41.412;2.164;2022-10-31T00:08:56;16.27;;;7.63;;
47153;SDS011;32907;41.412;2.164;2022-10-31T00:11:27;14.55;;;7.22;;
47153;SDS011;32907;41.412;2.164;2022-10-31T00:13:59;14.65;;;6.38;;
47153;SDS011;32907;41.412;2.164;2022-10-31T00:16:27;13.65;;;6.40;;
47153;SDS011;32907;41.412;2.164;2022-10-31T00:18:57;13.27;;;6.65;;
47153;SDS011;32907;41.412;2.164;2022-10-31T00:21:26;12.02;;;6.88;;
47153;SDS011;32907;41.412;2.164;2022-10-31T00:23:54;11.25;;;6.95;;
47153;SDS011;32907;41.412;2.164;2022-10-31T00:26:22;13.43;;;6.68;;
47153;SDS011;32907;41.412;2.164;2022-10-31T00:28:50;11.48;;;6.75;;
47153;SDS011;32907;41.412;2.164;2022-10-31T00:31:18;17.48;;;7.72;;
47153;SDS011;32907;41.412;2.164;2022-10-31T00:33:46;13.20;;;6.90;;
47153;SDS011;32907;41.412;2.164;2022-10-31T00:36:17;13.82;;;6.80;;
47153;SDS011;32907;41.412;2.164;2022-10-31T00:38:46;12.60;;;6.35;;
47153;SDS011;32907;41.412;2.164;2022-10-31T00:41:15;13.38;;;6.32;;
47153;SDS011;32907;41.412;2.164;2022-10-31T00:43:44;13.23;;;6.57;;
47153;SDS011;32907;41.412;2.164;2022-10-31T00:46:12;12.52;;;6.80;;
47153;SDS011;32907;41.412;2.164;2022-10-31T00:48:41;12.60;;;6.30;;
47153;SDS011;32907;41.412;2.164;2022-10-31T00:51:09;13.40;;;7.05;;
47153;SDS011;32907;41.412;2.164;2022-10-31T00:53:39;12.30;;;7.20;;
47153;SDS011;32907;41.412;2.164;2022-10-31T00:56:06;12.07;;;7.05;;
47153;SDS011;32907;41.412;2.164;2022-10-31T00:58:36;12.63;;;6.78;;
47153;SDS011;32907;41.412;2.164;2022-10-31T01:01:04;14.52;;;7.18;;
47153;SDS011;32907;41.412;2.164;2022-10-31T01:03:34;13.95;;;7.15;;
47153;SDS011;32907;41.412;2.164;2022-10-31T01:06:03;13.35;;;6.95;;
47153;SDS011;32907;41.412;2.164;2022-10-31T01:08:34;12.90;;;6.53;;
47153;SDS011;32907;41.412;2.164;2022-10-31T01:11:11;13.60;;;6.65;;
47153;SDS011;32907;41.412;2.164;2022-10-31T01:13:41;14.13;;;7.18;;
47153;SDS011;32907;41.412;2.164;2022-10-31T01:16:10;13.23;;;6.88;;
47153;SDS011;32907;41.412;2.164;2022-10-31T01:18:40;14.35;;;8.63;;
47153;SDS011;32907;41.412;2.164;2022-10-31T01:21:12;15.13;;;8.15;;
47153;SDS011;32907;41.412;2.164;2022-10-31T01:23:49;16.33;;;8.93;;
47153;SDS011;32907;41.412;2.164;2022-10-31T01:26:27;14.18;;;8.75;;
47153;SDS011;32907;41.412;2.164;2022-10-31T01:29:03;14.50;;;8.82;;
47153;SDS011;32907;41.412;2.164;2022-10-31T01:31:35;12.75;;;8.57;;
47153;SDS011;32907;41.412;2.164;2022-10-31T01:34:05;15.05;;;8.50;;
47153;SDS011;32907;41.412;2.164;2022-10-31T01:36:36;13.88;;;7.13;;
47153;SDS011;32907;41.412;2.164;2022-10-31T01:39:06;12.88;;;7.03;;
47153;SDS011;32907;41.412;2.164;2022-10-31T01:41:37;10.90;;;7.65;;
47153;SDS011;32907;41.412;2.164;2022-10-31T01:49:18;11.57;;;7.50;;
47153;SDS011;32907;41.412;2.164;2022-10-31T01:52:04;11.55;;;6.68;;
47153;SDS011;32907;41.412;2.164;2022-10-31T01:54:41;14.48;;;7.90;;
47153;SDS011;32907;41.412;2.164;2022-10-31T01:57:12;13.70;;;8.20;;
47153;SDS011;32907;41.412;2.164;2022-10-31T01:59:43;13.82;;;7.22;;
47153;SDS011;32907;41.412;2.164;2022-10-31T02:02:17;14.63;;;8.43;;
47153;SDS011;32907;41.412;2.164;2022-10-31T02:04:46;15.52;;;8.02;;
47153;SDS011;32907;41.412;2.164;2022-10-31T02:07:18;12.80;;;7.50;;
47153;SDS011;32907;41.412;2.164;2022-10-31T02:09:58;17.33;;;7.63;;
47153;SDS011;32907;41.412;2.164;2022-10-31T02:12:27;13.32;;;7.25;;
47153;SDS011;32907;41.412;2.164;2022-10-31T02:14:59;14.95;;;7.47;;
47153;SDS011;32907;41.412;2.164;2022-10-31T02:17:29;11.07;;;6.75;;
47153;SDS011;32907;41.412;2.164;2022-10-31T02:20:06;9.93;;;6.00;;
47153;SDS011;32907;41.412;2.164;2022-10-31T02:29:01;10.60;;;6.55;;
47153;SDS011;32907;41.412;2.164;2022-10-31T02:31:46;10.93;;;6.38;;
47153;SDS011;32907;41.412;2.164;2022-10-31T02:37:22;10.93;;;6.57;;
47153;SDS011;32907;41.412;2.164;2022-10-31T02:40:05;13.85;;;6.88;;
47153;SDS011;32907;41.412;2.164;2022-10-31T02:43:05;15.23;;;7.28;;
47153;SDS011;32907;41.412;2.164;2022-10-31T02:45:48;12.35;;;6.72;;
47153;SDS011;32907;41.412;2.164;2022-10-31T02:48:21;11.65;;;6.28;;
47153;SDS011;32907;41.412;2.164;2022-10-31T02:51:01;10.57;;;6.60;;
47153;SDS011;32907;41.412;2.164;2022-10-31T02:53:34;15.13;;;5.88;;
47153;SDS011;32907;41.412;2.164;2022-10-31T02:58:53;9.75;;;5.85;;
47153;SDS011;32907;41.412;2.164;2022-10-31T03:09:34;10.27;;;5.13;;
47153;SDS011;32907;41.412;2.164;2022-10-31T03:20:38;11.77;;;6.75;;
47153;SDS011;32907;41.412;2.164;2022-10-31T03:23:11;8.68;;;5.20;;
47153;SDS011;32907;41.412;2.164;2022-10-31T03:25:45;9.18;;;5.75;;
47153;SDS011;32907;41.412;2.164;2022-10-31T03:28:15;10.05;;;5.90;;
47153;SDS011;32907;41.412;2.164;2022-10-31T03:30:50;12.98;;;6.75;;
47153;SDS011;32907;41.412;2.164;2022-10-31T03:33:26;10.88;;;6.63;;
47153;SDS011;32907;41.412;2.164;2022-10-31T03:35:57;10.77;;;6.10;;
47153;SDS011;32907;41.412;2.164;2022-10-31T03:38:30;9.07;;;6.18;;
47153;SDS011;32907;41.412;2.164;2022-10-31T03:41:00;12.35;;;6.28;;
47153;SDS011;32907;41.412;2.164;2022-10-31T03:43:33;10.98;;;5.85;;
47153;SDS011;32907;41.412;2.164;2022-10-31T03:46:07;12.52;;;6.05;;
47153;SDS011;32907;41.412;2.164;2022-10-31T03:48:36;9.73;;;5.50;;
47153;SDS011;32907;41.412;2.164;2022-10-31T03:53:55;10.00;;;5.70;;
47153;SDS011;32907;41.412;2.164;2022-10-31T03:59:09;14.93;;;6.40;;
47153;SDS011;32907;41.412;2.164;2022-10-31T04:01:47;9.95;;;5.93;;
47153;SDS011;32907;41.412;2.164;2022-10-31T04:04:19;10.02;;;6.05;;
47153;SDS011;32907;41.412;2.164;2022-10-31T04:06:49;9.68;;;5.22;;
47153;SDS011;32907;41.412;2.164;2022-10-31T04:09:18;10.43;;;6.25;;
47153;SDS011;32907;41.412;2.164;2022-10-31T04:11:49;8.52;;;5.22;;
47153;SDS011;32907;41.412;2.164;2022-10-31T04:14:52;10.35;;;5.57;;
47153;SDS011;32907;41.412;2.164;2022-10-31T04:17:23;11.82;;;5.80;;
47153;SDS011;32907;41.412;2.164;2022-10-31T04:19:55;8.70;;;5.47;;
47153;SDS011;32907;41.412;2.164;2022-10-31T04:22:22;12.05;;;7.10;;
47153;SDS011;32907;41.412;2.164;2022-10-31T04:24:51;13.45;;;6.40;;
47153;SDS011;32907;41.412;2.164;2022-10-31T04:27:19;8.25;;;5.78;;
47153;SDS011;32907;41.412;2.164;2022-10-31T04:29:47;14.05;;;6.07;;
47153;SDS011;32907;41.412;2.164;2022-10-31T04:32:17;10.73;;;6.22;;
47153;SDS011;32907;41.412;2.164;2022-10-31T04:34:45;11.10;;;6.03;;
47153;SDS011;32907;41.412;2.164;2022-10-31T04:37:13;8.98;;;5.63;;
47153;SDS011;32907;41.412;2.164;2022-10-31T04:39:41;10.35;;;5.47;;
47153;SDS011;32907;41.412;2.164;2022-10-31T04:42:30;8.73;;;5.10;;
47153;SDS011;32907;41.412;2.164;2022-10-31T04:45:00;9.55;;;5.05;;
47153;SDS011;32907;41.412;2.164;2022-10-31T04:47:30;9.85;;;4.82;;
47153;SDS011;32907;41.412;2.164;2022-10-31T04:50:01;13.32;;;5.10;;
47153;SDS011;32907;41.412;2.164;2022-10-31T04:52:30;9.68;;;4.78;;
47153;SDS011;32907;41.412;2.164;2022-10-31T04:54:57;12.50;;;5.78;;
47153;SDS011;32907;41.412;2.164;2022-10-31T04:57:48;10.05;;;4.40;;
47153;SDS011;32907;41.412;2.164;2022-10-31T05:00:19;8.43;;;4.45;;
47153;SDS011;32907;41.412;2.164;2022-10-31T05:02:50;8.55;;;4.15;;
47153;SDS011;32907;41.412;2.164;2022-10-31T05:05:21;10.05;;;4.75;;
47153;SDS011;32907;41.412;2.164;2022-10-31T05:07:50;10.60;;;4.82;;
47153;SDS011;32907;41.412;2.164;2022-10-31T05:10:22;10.73;;;5.05;;
47153;SDS011;32907;41.412;2.164;2022-10-31T05:12:57;9.43;;;4.85;;
47153;SDS011;32907;41.412;2.164;2022-10-31T05:16:03;9.55;;;4.65;;
47153;SDS011;32907;41.412;2.164;2022-10-31T05:19:05;11.85;;;4.28;;
47153;SDS011;32907;41.412;2.164;2022-10-31T05:21:53;9.32;;;4.50;;
47153;SDS011;32907;41.412;2.164;2022-10-31T05:24:21;10.00;;;5.10;;
47153;SDS011;32907;41.412;2.164;2022-10-31T05:26:49;10.90;;;5.10;;
47153;SDS011;32907;41.412;2.164;2022-10-31T05:29:17;10.40;;;5.28;;
47153;SDS011;32907;41.412;2.164;2022-10-31T05:31:44;9.70;;;5.38;;
47153;SDS011;32907;41.412;2.164;2022-10-31T05:37:18;9.57;;;5.03;;
47153;SDS011;32907;41.412;2.164;2022-10-31T05:39:46;9.55;;;6.10;;
47153;SDS011;32907;41.412;2.164;2022-10-31T05:42:16;13.13;;;7.28;;
47153;SDS011;32907;41.412;2.164;2022-10-31T05:44:43;12.30;;;8.07;;
47153;SDS011;32907;41.412;2.164;2022-10-31T05:47:19;12.93;;;7.97;;
47153;SDS011;32907;41.412;2.164;2022-10-31T05:50:22;12.70;;;7.03;;
47153;SDS011;32907;41.412;2.164;2022-10-31T05:53:05;14.52;;;7.90;;
47153;SDS011;32907;41.412;2.164;2022-10-31T05:55:37;11.80;;;7.20;;
47153;SDS011;32907;41.412;2.164;2022-10-31T05:58:16;16.98;;;6.75;;
47153;SDS011;32907;41.412;2.164;2022-10-31T06:00:50;13.07;;;6.68;;
47153;SDS011;32907;41.412;2.164;2022-10-31T06:03:18;11.20;;;5.53;;
47153;SDS011;32907;41.412;2.164;2022-10-31T06:05:52;11.10;;;5.90;;
47153;SDS011;32907;41.412;2.164;2022-10-31T06:08:24;12.10;;;6.18;;
47153;SDS011;32907;41.412;2.164;2022-10-31T06:10:54;11.52;;;5.90;;
47153;SDS011;32907;41.412;2.164;2022-10-31T06:13:44;9.82;;;6.18;;
47153;SDS011;32907;41.412;2.164;2022-10-31T06:16:18;12.32;;;7.13;;
47153;SDS011;32907;41.412;2.164;2022-10-31T06:18:46;15.68;;;8.30;;
47153;SDS011;32907;41.412;2.164;2022-10-31T06:21:14;14.55;;;7.65;;
47153;SDS011;32907;41.412;2.164;2022-10-31T06:23:46;13.57;;;7.35;;
47153;SDS011;32907;41.412;2.164;2022-10-31T06:26:49;11.95;;;6.65;;
47153;SDS011;32907;41.412;2.164;2022-10-31T06:29:17;15.55;;;6.55;;
47153;SDS011;32907;41.412;2.164;2022-10-31T06:32:01;9.23;;;5.65;;
47153;SDS011;32907;41.412;2.164;2022-10-31T06:34:30;9.65;;;5.55;;
47153;SDS011;32907;41.412;2.164;2022-10-31T06:36:58;10.73;;;5.15;;
47153;SDS011;32907;41.412;2.164;2022-10-31T06:39:27;15.63;;;5.93;;
47153;SDS011;32907;41.412;2.164;2022-10-31T06:41:55;9.60;;;4.78;;
47153;SDS011;32907;41.412;2.164;2022-10-31T06:44:25;11.65;;;4.78;;
47153;SDS011;32907;41.412;2.164;2022-10-31T06:46:59;9.15;;;4.97;;
47153;SDS011;32907;41.412;2.164;2022-10-31T06:49:50;7.82;;;4.88;;
47153;SDS011;32907;41.412;2.164;2022-10-31T06:52:21;14.45;;;6.25;;
47153;SDS011;32907;41.412;2.164;2022-10-31T06:54:51;9.30;;;4.88;;
47153;SDS011;32907;41.412;2.164;2022-10-31T06:57:20;11.23;;;5.82;;
47153;SDS011;32907;41.412;2.164;2022-10-31T06:59:48;8.40;;;5.57;;
47153;SDS011;32907;41.412;2.164;2022-10-31T07:02:36;12.70;;;6.43;;
47153;SDS011;32907;41.412;2.164;2022-10-31T07:05:05;13.32;;;5.95;;
47153;SDS011;32907;41.412;2.164;2022-10-31T07:07:33;11.48;;;5.95;;
47153;SDS011;32907;41.412;2.164;2022-10-31T07:10:01;11.45;;;5.70;;
47153;SDS011;32907;41.412;2.164;2022-10-31T07:12:43;12.00;;;6.10;;
47153;SDS011;32907;41.412;2.164;2022-10-31T07:15:11;10.70;;;5.00;;
47153;SDS011;32907;41.412;2.164;2022-10-31T07:17:39;11.30;;;5.43;;
47153;SDS011;32907;41.412;2.164;2022-10-31T07:20:08;13.52;;;5.63;;
47153;SDS011;32907;41.412;2.164;2022-10-31T07:22:37;12.07;;;5.85;;
47153;SDS011;32907;41.412;2.164;2022-10-31T07:25:07;7.72;;;3.45;;
47153;SDS011;32907;41.412;2.164;2022-10-31T07:27:39;10.18;;;4.40;;
47153;SDS011;32907;41.412;2.164;2022-10-31T07:30:11;12.40;;;5.43;;
47153;SDS011;32907;41.412;2.164;2022-10-31T07:32:43;13.32;;;4.97;;
47153;SDS011;32907;41.412;2.164;2022-10-31T07:35:18;10.00;;;4.85;;
47153;SDS011;32907;41.412;2.164;2022-10-31T07:37:56;12.77;;;5.47;;
47153;SDS011;32907;41.412;2.164;2022-10-31T07:40:25;18.88;;;7.30;;
47153;SDS011;32907;41.412;2.164;2022-10-31T07:42:53;26.90;;;8.48;;
47153;SDS011;32907;41.412;2.164;2022-10-31T07:45:51;40.10;;;13.10;;
47153;SDS011;32907;41.412;2.164;2022-10-31T07:48:38;31.90;;;10.70;;
47153;SDS011;32907;41.412;2.164;2022-10-31T07:51:24;39.33;;;11.60;;
47153;SDS011;32907;41.412;2.164;2022-10-31T07:54:04;41.70;;;12.30;;
47153;SDS011;32907;41.412;2.164;2022-10-31T07:56:32;39.65;;;11.88;;
47153;SDS011;32907;41.412;2.164;2022-10-31T07:59:02;26.52;;;9.40;;
47153;SDS011;32907;41.412;2.164;2022-10-31T08:01:30;20.75;;;7.78;;
47153;SDS011;32907;41.412;2.164;2022-10-31T08:04:30;13.55;;;6.15;;
47153;SDS011;32907;41.412;2.164;2022-10-31T08:07:21;14.77;;;5.60;;
47153;SDS011;32907;41.412;2.164;2022-10-31T08:09:55;11.50;;;5.35;;
47153;SDS011;32907;41.412;2.164;2022-10-31T08:12:27;15.45;;;5.22;;
47153;SDS011;32907;41.412;2.164;2022-10-31T08:14:55;12.18;;;5.18;;
47153;SDS011;32907;41.412;2.164;2022-10-31T08:17:23;10.38;;;4.60;;
47153;SDS011;32907;41.412;2.164;2022-10-31T08:19:55;15.38;;;4.95;;
47153;SDS011;32907;41.412;2.164;2022-10-31T08:22:35;10.38;;;4.53;;
47153;SDS011;32907;41.412;2.164;2022-10-31T08:25:09;20.30;;;5.40;;
47153;SDS011;32907;41.412;2.164;2022-10-31T08:27:39;19.05;;;5.22;;
47153;SDS011;32907;41.412;2.164;2022-10-31T08:30:15;14.05;;;5.63;;
47153;SDS011;32907;41.412;2.164;2022-10-31T08:33:02;17.25;;;5.78;;
47153;SDS011;32907;41.412;2.164;2022-10-31T08:38:36;13.00;;;4.65;;
47153;SDS011;32907;41.412;2.164;2022-10-31T08:41:04;11.82;;;4.35;;
47153;SDS011;32907;41.412;2.164;2022-10-31T08:43:32;12.15;;;4.28;;
47153;SDS011;32907;41.412;2.164;2022-10-31T08:45:59;18.33;;;5.45;;
47153;SDS011;32907;41.412;2.164;2022-10-31T08:48:28;10.32;;;4.32;;
47153;SDS011;32907;41.412;2.164;2022-10-31T08:50:56;17.70;;;5.20;;
47153;SDS011;32907;41.412;2.164;2022-10-31T08:53:26;12.60;;;5.07;;
47153;SDS011;32907;41.412;2.164;2022-10-31T08:56:14;16.33;;;5.45;;
47153;SDS011;32907;41.412;2.164;2022-10-31T08:58:42;18.02;;;6.75;;
47153;SDS011;32907;41.412;2.164;2022-10-31T09:01:10;13.18;;;8.57;;
47153;SDS011;32907;41.412;2.164;2022-10-31T09:03:38;20.60;;;10.43;;
47153;SDS011;32907;41.412;2.164;2022-10-31T09:06:07;17.52;;;8.65;;
47153;SDS011;32907;41.412;2.164;2022-10-31T09:08:37;18.35;;;8.13;;
47153;SDS011;32907;41.412;2.164;2022-10-31T09:11:06;16.95;;;7.10;;
47153;SDS011;32907;41.412;2.164;2022-10-31T09:14:01;13.10;;;6.28;;
47153;SDS011;32907;41.412;2.164;2022-10-31T09:16:32;12.18;;;5.53;;
47153;SDS011;32907;41.412;2.164;2022-10-31T09:19:00;15.73;;;6.03;;
47153;SDS011;32907;41.412;2.164;2022-10-31T09:21:31;12.75;;;6.47;;
47153;SDS011;32907;41.412;2.164;2022-10-31T09:23:59;13.20;;;6.57;;
47153;SDS011;32907;41.412;2.164;2022-10-31T09:26:26;14.15;;;6.63;;
47153;SDS011;32907;41.412;2.164;2022-10-31T09:29:26;13.02;;;6.63;;
47153;SDS011;32907;41.412;2.164;2022-10-31T09:31:58;16.75;;;6.35;;
47153;SDS011;32907;41.412;2.164;2022-10-31T09:34:28;11.50;;;5.90;;
47153;SDS011;32907;41.412;2.164;2022-10-31T09:37:08;17.42;;;6.45;;
47153;SDS011;32907;41.412;2.164;2022-10-31T09:39:36;16.45;;;7.53;;
47153;SDS011;32907;41.412;2.164;2022-10-31T09:42:33;23.25;;;8.60;;
47153;SDS011;32907;41.412;2.164;2022-10-31T09:51:24;17.60;;;7.72;;
47153;SDS011;32907;41.412;2.164;2022-10-31T09:57:10;14.98;;;6.60;;
47153;SDS011;32907;41.412;2.164;2022-10-31T09:59:46;16.05;;;6.90;;
47153;SDS011;32907;41.412;2.164;2022-10-31T10:05:12;13.25;;;6.07;;
47153;SDS011;32907;41.412;2.164;2022-10-31T10:07:48;16.50;;;5.90;;
47153;SDS011;32907;41.412;2.164;2022-10-31T10:17:04;13.55;;;6.00;;
47153;SDS011;32907;41.412;2.164;2022-10-31T10:19:55;17.45;;;6.75;;
47153;SDS011;32907;41.412;2.164;2022-10-31T10:25:08;15.90;;;6.55;;
47153;SDS011;32907;41.412;2.164;2022-10-31T10:30:41;13.27;;;5.75;;
47153;SDS011;32907;41.412;2.164;2022-10-31T10:33:13;11.55;;;5.35;;
47153;SDS011;32907;41.412;2.164;2022-10-31T10:35:49;14.32;;;6.18;;
47153;SDS011;32907;41.412;2.164;2022-10-31T10:38:45;11.60;;;6.72;;
47153;SDS011;32907;41.412;2.164;2022-10-31T10:41:23;14.10;;;6.78;;
47153;SDS011;32907;41.412;2.164;2022-10-31T10:43:57;13.93;;;6.63;;
47153;SDS011;32907;41.412;2.164;2022-10-31T10:49:32;12.25;;;6.55;;
47153;SDS011;32907;41.412;2.164;2022-10-31T10:52:16;12.13;;;6.45;;
47153;SDS011;32907;41.412;2.164;2022-10-31T10:55:22;15.20;;;6.10;;
47153;SDS011;32907;41.412;2.164;2022-10-31T10:58:02;14.07;;;6.15;;
47153;SDS011;32907;41.412;2.164;2022-10-31T11:00:43;13.40;;;6.43;;
47153;SDS011;32907;41.412;2.164;2022-10-31T11:03:17;26.40;;;10.75;;
47153;SDS011;32907;41.412;2.164;2022-10-31T11:10:58;15.88;;;7.68;;
47153;SDS011;32907;41.412;2.164;2022-10-31T11:13:28;14.15;;;7.32;;
47153;SDS011;32907;41.412;2.164;2022-10-31T11:19:05;14.32;;;6.68;;
47153;SDS011;32907;41.412;2.164;2022-10-31T11:21:35;12.23;;;7.00;;
47153;SDS011;32907;41.412;2.164;2022-10-31T11:26:37;14.82;;;7.28;;
47153;SDS011;32907;41.412;2.164;2022-10-31T11:29:41;14.63;;;7.60;;
47153;SDS011;32907;41.412;2.164;2022-10-31T11:32:00;15.75;;;7.60;;
47153;SDS011;32907;41.412;2.164;2022-10-31T11:34:30;13.27;;;7.75;;
47153;SDS011;32907;41.412;2.164;2022-10-31T11:39:44;14.70;;;8.13;;
47153;SDS011;32907;41.412;2.164;2022-10-31T11:42:21;18.02;;;8.95;;
47153;SDS011;32907;41.412;2.164;2022-10-31T11:44:51;18.52;;;8.85;;
47153;SDS011;32907;41.412;2.164;2022-10-31T11:47:23;20.38;;;9.02;;
47153;SDS011;32907;41.412;2.164;2022-10-31T11:49:56;12.98;;;8.45;;
47153;SDS011;32907;41.412;2.164;2022-10-31T11:52:25;14.50;;;7.68;;
47153;SDS011;32907;41.412;2.164;2022-10-31T11:54:58;14.40;;;8.00;;
47153;SDS011;32907;41.412;2.164;2022-10-31T11:57:49;17.27;;;8.10;;
47153;SDS011;32907;41.412;2.164;2022-10-31T12:03:03;15.80;;;7.15;;
47153;SDS011;32907;41.412;2.164;2022-10-31T12:05:52;13.32;;;6.47;;
47153;SDS011;32907;41.412;2.164;2022-10-31T12:08:21;14.15;;;6.72;;
47153;SDS011;32907;41.412;2.164;2022-10-31T12:16:06;20.95;;;9.38;;
47153;SDS011;32907;41.412;2.164;2022-10-31T12:35:01;10.75;;;5.80;;
47153;SDS011;32907;41.412;2.164;2022-10-31T12:43:47;12.25;;;6.15;;
47153;SDS011;32907;41.412;2.164;2022-10-31T12:55:16;20.67;;;7.68;;
47153;SDS011;32907;41.412;2.164;2022-10-31T12:58:03;11.45;;;6.43;;
47153;SDS011;32907;41.412;2.164;2022-10-31T13:00:38;15.68;;;5.55;;
47153;SDS011;32907;41.412;2.164;2022-10-31T13:06:08;16.48;;;6.43;;
47153;SDS011;32907;41.412;2.164;2022-10-31T13:08:52;16.55;;;6.57;;
47153;SDS011;32907;41.412;2.164;2022-10-31T13:11:41;13.45;;;7.32;;
47153;SDS011;32907;41.412;2.164;2022-10-31T13:17:32;21.95;;;9.32;;
47153;SDS011;32907;41.412;2.164;2022-10-31T13:20:11;23.90;;;8.45;;
47153;SDS011;32907;41.412;2.164;2022-10-31T13:22:41;20.73;;;8.25;;
47153;SDS011;32907;41.412;2.164;2022-10-31T13:25:15;15.50;;;7.35;;
47153;SDS011;32907;41.412;2.164;2022-10-31T13:30:31;22.42;;;8.07;;
47153;SDS011;32907;41.412;2.164;2022-10-31T13:33:15;14.93;;;6.70;;
47153;SDS011;32907;41.412;2.164;2022-10-31T13:38:21;9.38;;;6.13;;
47153;SDS011;32907;41.412;2.164;2022-10-31T13:40:59;17.45;;;8.05;;
47153;SDS011;32907;41.412;2.164;2022-10-31T13:49:01;18.33;;;7.68;;
47153;SDS011;32907;41.412;2.164;2022-10-31T13:51:33;16.27;;;6.85;;
47153;SDS011;32907;41.412;2.164;2022-10-31T13:56:50;13.57;;;6.85;;
47153;SDS011;32907;41.412;2.164;2022-10-31T13:59:23;13.25;;;6.10;;
47153;SDS011;32907;41.412;2.164;2022-10-31T14:01:58;17.90;;;6.40;;
47153;SDS011;32907;41.412;2.164;2022-10-31T14:04:31;16.52;;;6.90;;
47153;SDS011;32907;41.412;2.164;2022-10-31T14:07:09;14.77;;;6.70;;
47153;SDS011;32907;41.412;2.164;2022-10-31T14:10:06;16.05;;;7.63;;
47153;SDS011;32907;41.412;2.164;2022-10-31T14:12:54;19.98;;;8.25;;
47153;SDS011;32907;41.412;2.164;2022-10-31T14:15:32;14.75;;;7.35;;
47153;SDS011;32907;41.412;2.164;2022-10-31T14:18:01;12.65;;;7.10;;
47153;SDS011;32907;41.412;2.164;2022-10-31T14:20:40;20.20;;;7.80;;
47153;SDS011;32907;41.412;2.164;2022-10-31T14:23:35;15.05;;;7.25;;
47153;SDS011;32907;41.412;2.164;2022-10-31T14:26:20;15.95;;;8.10;;
47153;SDS011;32907;41.412;2.164;2022-10-31T14:28:56;16.35;;;7.97;;
47153;SDS011;32907;41.412;2.164;2022-10-31T14:34:29;16.38;;;6.70;;
47153;SDS011;32907;41.412;2.164;2022-10-31T14:51:21;11.20;;;5.95;;
47153;SDS011;32907;41.412;2.164;2022-10-31T14:53:54;12.55;;;6.05;;
47153;SDS011;32907;41.412;2.164;2022-10-31T14:56:31;11.77;;;5.43;;
47153;SDS011;32907;41.412;2.164;2022-10-31T14:59:03;13.20;;;5.65;;
47153;SDS011;32907;41.412;2.164;2022-10-31T15:01:38;14.38;;;6.35;;
47153;SDS011;32907;41.412;2.164;2022-10-31T15:04:09;16.75;;;6.40;;
47153;SDS011;32907;41.412;2.164;2022-10-31T15:06:57;10.88;;;5.53;;
47153;SDS011;32907;41.412;2.164;2022-10-31T15:09:32;14.82;;;6.25;;
47153;SDS011;32907;41.412;2.164;2022-10-31T15:15:15;11.77;;;5.63;;
47153;SDS011;32907;41.412;2.164;2022-10-31T15:17:51;14.13;;;6.13;;
47153;SDS011;32907;41.412;2.164;2022-10-31T15:20:23;10.85;;;5.93;;
47153;SDS011;32907;41.412;2.164;2022-10-31T15:22:54;11.25;;;5.82;;
47153;SDS011;32907;41.412;2.164;2022-10-31T15:25:24;12.45;;;6.18;;
47153;SDS011;32907;41.412;2.164;2022-10-31T15:27:55;9.13;;;5.72;;
47153;SDS011;32907;41.412;2.164;2022-10-31T15:30:28;19.83;;;6.72;;
47153;SDS011;32907;41.412;2.164;2022-10-31T15:32:57;18.77;;;6.68;;
47153;SDS011;32907;41.412;2.164;2022-10-31T15:35:26;12.48;;;5.95;;
47153;SDS011;32907;41.412;2.164;2022-10-31T15:37:57;14.65;;;6.93;;
47153;SDS011;32907;41.412;2.164;2022-10-31T15:40:26;11.05;;;6.28;;
47153;SDS011;32907;41.412;2.164;2022-10-31T15:42:56;17.23;;;6.90;;
47153;SDS011;32907;41.412;2.164;2022-10-31T15:45:27;14.15;;;7.10;;
47153;SDS011;32907;41.412;2.164;2022-10-31T15:47:58;13.73;;;7.05;;
47153;SDS011;32907;41.412;2.164;2022-10-31T15:50:33;16.10;;;8.13;;
47153;SDS011;32907;41.412;2.164;2022-10-31T15:53:05;15.73;;;8.13;;
47153;SDS011;32907;41.412;2.164;2022-10-31T15:55:55;11.15;;;7.63;;
47153;SDS011;32907;41.412;2.164;2022-10-31T16:01:20;22.08;;;9.95;;
47153;SDS011;32907;41.412;2.164;2022-10-31T16:06:32;16.13;;;7.47;;
47153;SDS011;32907;41.412;2.164;2022-10-31T16:09:02;12.98;;;7.35;;
47153;SDS011;32907;41.412;2.164;2022-10-31T16:11:45;14.45;;;7.50;;
47153;SDS011;32907;41.412;2.164;2022-10-31T16:16:41;17.83;;;7.82;;
47153;SDS011;32907;41.412;2.164;2022-10-31T16:19:14;16.20;;;7.65;;
47153;SDS011;32907;41.412;2.164;2022-10-31T16:21:52;16.70;;;7.60;;
47153;SDS011;32907;41.412;2.164;2022-10-31T16:24:32;11.45;;;7.25;;
47153;SDS011;32907;41.412;2.164;2022-10-31T16:27:05;12.10;;;7.05;;
47153;SDS011;32907;41.412;2.164;2022-10-31T16:29:42;12.88;;;6.53;;
47153;SDS011;32907;41.412;2.164;2022-10-31T16:38:05;11.63;;;6.25;;
47153;SDS011;32907;41.412;2.164;2022-10-31T16:40:33;12.63;;;6.85;;
47153;SDS011;32907;41.412;2.164;2022-10-31T16:43:01;14.82;;;6.22;;
47153;SDS011;32907;41.412;2.164;2022-10-31T16:45:30;12.90;;;6.60;;
47153;SDS011;32907;41.412;2.164;2022-10-31T16:48:04;13.95;;;6.20;;
47153;SDS011;32907;41.412;2.164;2022-10-31T16:50:34;13.85;;;6.38;;
47153;SDS011;32907;41.412;2.164;2022-10-31T16:53:02;14.77;;;6.50;;
47153;SDS011;32907;41.412;2.164;2022-10-31T16:55:56;15.93;;;6.38;;
47153;SDS011;32907;41.412;2.164;2022-10-31T16:58:26;13.27;;;6.70;;
47153;SDS011;32907;41.412;2.164;2022-10-31T17:01:04;15.23;;;6.82;;
47153;SDS011;32907;41.412;2.164;2022-10-31T17:03:33;13.05;;;7.03;;
47153;SDS011;32907;41.412;2.164;2022-10-31T17:06:01;14.00;;;7.25;;
47153;SDS011;32907;41.412;2.164;2022-10-31T17:08:31;13.40;;;6.78;;
47153;SDS011;32907;41.412;2.164;2022-10-31T17:11:01;14.60;;;7.78;;
47153;SDS011;32907;41.412;2.164;2022-10-31T17:13:29;16.75;;;7.40;;
47153;SDS011;32907;41.412;2.164;2022-10-31T17:15:59;12.90;;;7.18;;
47153;SDS011;32907;41.412;2.164;2022-10-31T17:18:30;11.23;;;6.93;;
47153;SDS011;32907;41.412;2.164;2022-10-31T17:21:02;14.68;;;7.68;;
47153;SDS011;32907;41.412;2.164;2022-10-31T17:23:32;16.55;;;8.00;;
47153;SDS011;32907;41.412;2.164;2022-10-31T17:26:00;13.32;;;6.90;;
47153;SDS011;32907;41.412;2.164;2022-10-31T17:28:28;12.02;;;6.55;;
47153;SDS011;32907;41.412;2.164;2022-10-31T17:30:55;12.02;;;7.07;;
47153;SDS011;32907;41.412;2.164;2022-10-31T17:33:25;17.75;;;7.45;;
47153;SDS011;32907;41.412;2.164;2022-10-31T17:35:54;15.13;;;7.97;;
47153;SDS011;32907;41.412;2.164;2022-10-31T17:38:21;14.30;;;8.10;;
47153;SDS011;32907;41.412;2.164;2022-10-31T17:40:49;17.38;;;9.32;;
47153;SDS011;32907;41.412;2.164;2022-10-31T17:43:17;13.35;;;8.75;;
47153;SDS011;32907;41.412;2.164;2022-10-31T17:45:45;17.27;;;10.18;;
47153;SDS011;32907;41.412;2.164;2022-10-31T17:48:13;15.68;;;8.63;;
47153;SDS011;32907;41.412;2.164;2022-10-31T17:50:41;13.95;;;8.30;;
47153;SDS011;32907;41.412;2.164;2022-10-31T17:53:09;12.15;;;7.50;;
47153;SDS011;32907;41.412;2.164;2022-10-31T17:55:36;13.65;;;7.22;;
47153;SDS011;32907;41.412;2.164;2022-10-31T17:58:04;14.43;;;7.43;;
47153;SDS011;32907;41.412;2.164;2022-10-31T18:00:32;13.38;;;6.97;;
47153;SDS011;32907;41.412;2.164;2022-10-31T18:03:01;14.18;;;6.90;;
47153;SDS011;32907;41.412;2.164;2022-10-31T18:05:30;13.48;;;7.28;;
47153;SDS011;32907;41.412;2.164;2022-10-31T18:07:58;13.88;;;6.88;;
47153;SDS011;32907;41.412;2.164;2022-10-31T18:10:30;18.23;;;7.00;;
47153;SDS011;32907;41.412;2.164;2022-10-31T18:12:58;15.35;;;6.80;;
47153;SDS011;32907;41.412;2.164;2022-10-31T18:15:26;16.95;;;7.22;;
47153;SDS011;32907;41.412;2.164;2022-10-31T18:17:54;18.40;;;8.02;;